sensor_id;sensor_type;location;lat;lon;timestamp;pressure;altitude;pressure_sealevel;temperature;humidity
22572;BME280;11452;53.368;14.658;2023-04-06T00:02:02;101619.40;;;5.64;58.52
22572;BME280;11452;53.368;14.658;2023-04-06T00:07:08;101620.58;;;5.72;58.38
22572;BME280;11452;53.368;14.658;2023-04-06T00:12:13;101616.75;;;5.64;58.32
22572;BME280;11452;53.368;14.658;2023-04-06T00:17:19;101616.72;;;5.66;58.73
22572;BME280;11452;53.368;14.658;2023-04-06T00:22:25;101618.77;;;5.74;59.17
22572;BME280;11452;53.368;14.658;2023-04-06T00:27:30;101611.91;;;5.83;59.31
22572;BME280;11452;53.368;14.658;2023-04-06T00:32:36;101611.23;;;5.94;59.49
22572;BME280;11452;53.368;14.658;2023-04-06T00:37:41;101610.33;;;5.95;59.42
22572;BME280;11452;53.368;14.658;2023-04-06T00:42:47;101601.17;;;5.90;59.66
22572;BME280;11452;53.368;14.658;2023-04-06T00:47:53;101593.05;;;5.97;59.57
22572;BME280;11452;53.368;14.658;2023-04-06T00:52:59;101592.56;;;5.99;59.65
22572;BME280;11452;53.368;14.658;2023-04-06T00:58:05;101593.02;;;5.98;59.73
22572;BME280;11452;53.368;14.658;2023-04-06T01:03:13;101591.23;;;5.99;59.82
22572;BME280;11452;53.368;14.658;2023-04-06T01:08:19;101589.91;;;5.99;59.76
22572;BME280;11452;53.368;14.658;2023-04-06T01:13:28;101585.41;;;6.02;59.84
22572;BME280;11452;53.368;14.658;2023-04-06T01:18:37;101589.80;;;6.03;59.77
22572;BME280;11452;53.368;14.658;2023-04-06T01:23:45;101585.34;;;6.05;59.98
22572;BME280;11452;53.368;14.658;2023-04-06T01:28:53;101582.72;;;6.04;59.91
22572;BME280;11452;53.368;14.658;2023-04-06T01:34:00;101583.63;;;6.03;59.99
22572;BME280;11452;53.368;14.658;2023-04-06T01:39:06;101582.72;;;6.04;60.09
22572;BME280;11452;53.368;14.658;2023-04-06T01:44:16;101587.99;;;6.05;60.13
22572;BME280;11452;53.368;14.658;2023-04-06T01:49:24;101590.58;;;6.08;60.10
22572;BME280;11452;53.368;14.658;2023-04-06T01:54:31;101589.64;;;6.11;60.15
22572;BME280;11452;53.368;14.658;2023-04-06T01:59:42;101591.59;;;6.03;59.82
22572;BME280;11452;53.368;14.658;2023-04-06T02:04:49;101591.44;;;5.91;59.96
22572;BME280;11452;53.368;14.658;2023-04-06T02:09:55;101588.39;;;5.88;60.06
22572;BME280;11452;53.368;14.658;2023-04-06T02:15:03;101584.87;;;5.86;60.15
22572;BME280;11452;53.368;14.658;2023-04-06T02:20:09;101580.66;;;5.97;60.55
22572;BME280;11452;53.368;14.658;2023-04-06T02:25:15;101580.66;;;5.97;60.55
22572;BME280;11452;53.368;14.658;2023-04-06T02:30:21;101583.20;;;6.02;60.54
22572;BME280;11452;53.368;14.658;2023-04-06T02:35:29;101580.06;;;6.04;60.61
22572;BME280;11452;53.368;14.658;2023-04-06T02:40:35;101582.92;;;5.95;60.21
22572;BME280;11452;53.368;14.658;2023-04-06T02:45:43;101586.55;;;5.92;60.36
22572;BME280;11452;53.368;14.658;2023-04-06T02:50:48;101591.47;;;5.89;60.41
22572;BME280;11452;53.368;14.658;2023-04-06T02:55:54;101583.99;;;5.86;60.60
22572;BME280;11452;53.368;14.658;2023-04-06T03:01:02;101584.58;;;5.79;60.58
22572;BME280;11452;53.368;14.658;2023-04-06T03:06:07;101587.48;;;5.69;60.98
22572;BME280;11452;53.368;14.658;2023-04-06T03:11:13;101587.48;;;5.69;60.98
22572;BME280;11452;53.368;14.658;2023-04-06T03:16:19;101589.59;;;5.74;61.05
22572;BME280;11452;53.368;14.658;2023-04-06T03:21:26;101590.40;;;5.76;61.14
22572;BME280;11452;53.368;14.658;2023-04-06T03:26:31;101582.89;;;5.75;61.26
22572;BME280;11452;53.368;14.658;2023-04-06T03:31:39;101577.95;;;5.79;61.30
22572;BME280;11452;53.368;14.658;2023-04-06T03:36:52;101581.89;;;5.81;61.33
22572;BME280;11452;53.368;14.658;2023-04-06T03:42:00;101594.63;;;5.84;61.38
22572;BME280;11452;53.368;14.658;2023-04-06T03:47:08;101594.63;;;5.84;61.38
22572;BME280;11452;53.368;14.658;2023-04-06T03:52:13;101600.75;;;5.89;61.37
22572;BME280;11452;53.368;14.658;2023-04-06T03:57:19;101604.77;;;5.86;61.07
22572;BME280;11452;53.368;14.658;2023-04-06T04:02:24;101603.92;;;5.84;60.82
22572;BME280;11452;53.368;14.658;2023-04-06T04:07:30;101599.65;;;5.77;60.83
22572;BME280;11452;53.368;14.658;2023-04-06T04:12:36;101609.39;;;5.77;60.92
22572;BME280;11452;53.368;14.658;2023-04-06T04:17:42;101606.37;;;5.74;60.91
22572;BME280;11452;53.368;14.658;2023-04-06T04:22:49;101615.59;;;5.76;60.70
22572;BME280;11452;53.368;14.658;2023-04-06T04:27:55;101610.29;;;5.76;60.60
22572;BME280;11452;53.368;14.658;2023-04-06T04:33:01;101613.30;;;5.80;60.38
22572;BME280;11452;53.368;14.658;2023-04-06T04:38:06;101616.80;;;5.82;60.17
22572;BME280;11452;53.368;14.658;2023-04-06T04:43:14;101622.00;;;5.86;59.58
22572;BME280;11452;53.368;14.658;2023-04-06T04:48:20;101623.72;;;5.90;59.18
22572;BME280;11452;53.368;14.658;2023-04-06T04:53:30;101631.42;;;6.01;58.70
22572;BME280;11452;53.368;14.658;2023-04-06T04:58:37;101631.13;;;5.94;57.77
22572;BME280;11452;53.368;14.658;2023-04-06T05:03:43;101643.03;;;5.96;57.66
22572;BME280;11452;53.368;14.658;2023-04-06T05:08:51;101646.30;;;5.87;57.49
22572;BME280;11452;53.368;14.658;2023-04-06T05:13:58;101650.02;;;5.79;57.42
22572;BME280;11452;53.368;14.658;2023-04-06T05:19:05;101649.98;;;5.80;57.67
22572;BME280;11452;53.368;14.658;2023-04-06T05:24:13;101654.74;;;5.85;57.64
22572;BME280;11452;53.368;14.658;2023-04-06T05:29:20;101652.91;;;5.90;57.63
22572;BME280;11452;53.368;14.658;2023-04-06T05:34:25;101658.02;;;5.98;57.59
22572;BME280;11452;53.368;14.658;2023-04-06T05:39:32;101645.53;;;6.03;57.67
22572;BME280;11452;53.368;14.658;2023-04-06T05:44:39;101645.53;;;6.03;57.67
22572;BME280;11452;53.368;14.658;2023-04-06T05:49:46;101657.56;;;6.18;57.55
22572;BME280;11452;53.368;14.658;2023-04-06T05:54:53;101651.67;;;6.24;57.27
22572;BME280;11452;53.368;14.658;2023-04-06T06:00:00;101649.23;;;6.33;57.27
22572;BME280;11452;53.368;14.658;2023-04-06T06:05:09;101652.23;;;6.37;57.05
22572;BME280;11452;53.368;14.658;2023-04-06T06:10:16;101656.40;;;6.49;56.74
22572;BME280;11452;53.368;14.658;2023-04-06T06:15:22;101661.78;;;6.64;56.70
22572;BME280;11452;53.368;14.658;2023-04-06T06:20:28;101673.41;;;6.76;56.29
22572;BME280;11452;53.368;14.658;2023-04-06T06:25:35;101663.05;;;6.83;55.82
22572;BME280;11452;53.368;14.658;2023-04-06T06:30:41;101664.84;;;6.99;55.64
22572;BME280;11452;53.368;14.658;2023-04-06T06:35:49;101660.48;;;7.12;55.28
22572;BME280;11452;53.368;14.658;2023-04-06T06:40:55;101665.41;;;7.26;55.20
22572;BME280;11452;53.368;14.658;2023-04-06T06:46:03;101663.55;;;7.29;54.49
22572;BME280;11452;53.368;14.658;2023-04-06T06:51:09;101665.66;;;7.49;54.29
22572;BME280;11452;53.368;14.658;2023-04-06T06:56:16;101669.73;;;7.77;54.24
22572;BME280;11452;53.368;14.658;2023-04-06T07:01:22;101669.59;;;7.96;53.44
22572;BME280;11452;53.368;14.658;2023-04-06T07:06:28;101674.61;;;8.06;52.51
22572;BME280;11452;53.368;14.658;2023-04-06T07:11:33;101677.58;;;8.24;52.95
22572;BME280;11452;53.368;14.658;2023-04-06T07:16:39;101680.38;;;8.49;52.37
22572;BME280;11452;53.368;14.658;2023-04-06T07:21:46;101688.00;;;8.73;52.15
22572;BME280;11452;53.368;14.658;2023-04-06T07:26:53;101681.34;;;8.60;50.44
22572;BME280;11452;53.368;14.658;2023-04-06T07:31:58;101682.07;;;8.52;50.53
22572;BME280;11452;53.368;14.658;2023-04-06T07:37:05;101685.43;;;8.44;50.16
22572;BME280;11452;53.368;14.658;2023-04-06T07:42:11;101683.08;;;8.48;50.44
22572;BME280;11452;53.368;14.658;2023-04-06T07:47:17;101682.99;;;8.64;49.67
22572;BME280;11452;53.368;14.658;2023-04-06T07:52:23;101687.59;;;8.59;49.71
22572;BME280;11452;53.368;14.658;2023-04-06T07:57:29;101690.33;;;8.71;50.44
22572;BME280;11452;53.368;14.658;2023-04-06T08:02:35;101695.90;;;9.02;50.21
22572;BME280;11452;53.368;14.658;2023-04-06T08:07:40;101696.72;;;9.29;50.23
22572;BME280;11452;53.368;14.658;2023-04-06T08:12:47;101697.17;;;9.42;49.32
22572;BME280;11452;53.368;14.658;2023-04-06T08:17:52;101690.13;;;8.90;48.83
22572;BME280;11452;53.368;14.658;2023-04-06T08:22:59;101693.12;;;8.92;48.87
22572;BME280;11452;53.368;14.658;2023-04-06T08:28:05;101692.16;;;9.08;49.23
22572;BME280;11452;53.368;14.658;2023-04-06T08:33:11;101696.95;;;9.10;48.42
22572;BME280;11452;53.368;14.658;2023-04-06T08:38:16;101688.70;;;9.43;49.68
22572;BME280;11452;53.368;14.658;2023-04-06T08:43:22;101685.90;;;9.82;49.39
22572;BME280;11452;53.368;14.658;2023-04-06T08:48:29;101685.93;;;9.46;48.46
22572;BME280;11452;53.368;14.658;2023-04-06T08:53:35;101698.56;;;9.52;48.35
22572;BME280;11452;53.368;14.658;2023-04-06T08:58:41;101696.03;;;9.61;48.45
22572;BME280;11452;53.368;14.658;2023-04-06T09:03:49;101689.34;;;10.07;48.64
22572;BME280;11452;53.368;14.658;2023-04-06T09:08:55;101688.60;;;10.27;48.48
22572;BME280;11452;53.368;14.658;2023-04-06T09:14:02;101685.52;;;10.03;47.56
22572;BME280;11452;53.368;14.658;2023-04-06T09:19:08;101684.36;;;10.10;46.47
22572;BME280;11452;53.368;14.658;2023-04-06T09:24:14;101680.02;;;10.41;47.86
22572;BME280;11452;53.368;14.658;2023-04-06T09:29:25;101675.42;;;10.66;46.75
22572;BME280;11452;53.368;14.658;2023-04-06T09:34:32;101670.77;;;10.82;46.69
22572;BME280;11452;53.368;14.658;2023-04-06T09:39:38;101666.91;;;10.89;45.90
22572;BME280;11452;53.368;14.658;2023-04-06T09:44:44;101663.11;;;11.04;46.30
22572;BME280;11452;53.368;14.658;2023-04-06T09:49:52;101668.04;;;11.14;45.71
22572;BME280;11452;53.368;14.658;2023-04-06T09:55:01;101673.22;;;11.28;45.74
22572;BME280;11452;53.368;14.658;2023-04-06T10:00:08;101671.99;;;11.45;44.68
22572;BME280;11452;53.368;14.658;2023-04-06T10:10:42;101667.68;;;11.52;43.91
22572;BME280;11452;53.368;14.658;2023-04-06T10:15:48;101658.38;;;11.89;44.66
22572;BME280;11452;53.368;14.658;2023-04-06T10:21:20;101655.14;;;12.01;43.89
22572;BME280;11452;53.368;14.658;2023-04-06T10:26:22;101654.77;;;12.09;42.96
22572;BME280;11452;53.368;14.658;2023-04-06T10:31:28;101656.23;;;11.68;42.34
22572;BME280;11452;53.368;14.658;2023-04-06T10:36:35;101649.50;;;11.39;42.30
22572;BME280;11452;53.368;14.658;2023-04-06T10:41:43;101651.34;;;11.29;42.08
22572;BME280;11452;53.368;14.658;2023-04-06T10:46:57;101653.25;;;11.35;42.50
22572;BME280;11452;53.368;14.658;2023-04-06T10:52:06;101646.27;;;11.52;42.17
22572;BME280;11452;53.368;14.658;2023-04-06T10:57:13;101648.49;;;11.32;41.89
22572;BME280;11452;53.368;14.658;2023-04-06T11:02:21;101640.55;;;11.20;42.03
22572;BME280;11452;53.368;14.658;2023-04-06T11:07:28;101641.20;;;11.35;41.78
22572;BME280;11452;53.368;14.658;2023-04-06T11:12:35;101645.92;;;11.30;41.43
22572;BME280;11452;53.368;14.658;2023-04-06T11:17:41;101641.61;;;11.36;41.76
22572;BME280;11452;53.368;14.658;2023-04-06T11:22:51;101634.17;;;11.33;41.39
22572;BME280;11452;53.368;14.658;2023-04-06T11:27:57;101638.80;;;11.39;41.38
22572;BME280;11452;53.368;14.658;2023-04-06T11:33:05;101636.34;;;11.64;41.40
22572;BME280;11452;53.368;14.658;2023-04-06T11:38:10;101626.17;;;11.62;40.87
22572;BME280;11452;53.368;14.658;2023-04-06T11:43:16;101638.58;;;11.73;41.10
22572;BME280;11452;53.368;14.658;2023-04-06T11:48:22;101630.84;;;11.77;40.91
22572;BME280;11452;53.368;14.658;2023-04-06T11:53:29;101638.20;;;11.82;40.93
22572;BME280;11452;53.368;14.658;2023-04-06T11:58:35;101631.66;;;11.88;41.01
22572;BME280;11452;53.368;14.658;2023-04-06T12:03:40;101623.09;;;11.90;40.41
22572;BME280;11452;53.368;14.658;2023-04-06T12:08:47;101623.41;;;11.92;40.58
22572;BME280;11452;53.368;14.658;2023-04-06T12:13:53;101622.48;;;11.93;40.37
22572;BME280;11452;53.368;14.658;2023-04-06T12:19:01;101616.72;;;11.92;40.52
22572;BME280;11452;53.368;14.658;2023-04-06T12:24:08;101616.91;;;11.98;40.67
22572;BME280;11452;53.368;14.658;2023-04-06T12:29:14;101612.14;;;12.13;40.56
22572;BME280;11452;53.368;14.658;2023-04-06T12:34:19;101613.34;;;12.25;40.47
22572;BME280;11452;53.368;14.658;2023-04-06T12:39:27;101611.27;;;12.40;40.17
22572;BME280;11452;53.368;14.658;2023-04-06T12:44:32;101611.39;;;12.28;39.80
22572;BME280;11452;53.368;14.658;2023-04-06T12:49:38;101611.48;;;12.44;39.93
22572;BME280;11452;53.368;14.658;2023-04-06T12:54:43;101606.05;;;12.37;39.40
22572;BME280;11452;53.368;14.658;2023-04-06T12:59:49;101601.66;;;12.53;39.69
22572;BME280;11452;53.368;14.658;2023-04-06T13:04:56;101597.73;;;12.77;39.56
22572;BME280;11452;53.368;14.658;2023-04-06T13:10:01;101600.41;;;12.77;39.32
22572;BME280;11452;53.368;14.658;2023-04-06T13:15:07;101591.03;;;12.77;38.80
22572;BME280;11452;53.368;14.658;2023-04-06T13:20:13;101591.33;;;12.71;38.69
22572;BME280;11452;53.368;14.658;2023-04-06T13:25:19;101583.92;;;12.59;38.35
22572;BME280;11452;53.368;14.658;2023-04-06T13:30:24;101573.78;;;12.30;38.50
22572;BME280;11452;53.368;14.658;2023-04-06T13:35:30;101570.67;;;12.56;38.52
22572;BME280;11452;53.368;14.658;2023-04-06T13:40:38;101571.52;;;12.65;37.90
22572;BME280;11452;53.368;14.658;2023-04-06T13:45:48;101571.37;;;12.06;37.68
22572;BME280;11452;53.368;14.658;2023-04-06T13:50:51;101563.08;;;12.47;38.17
22572;BME280;11452;53.368;14.658;2023-04-06T13:55:57;101560.24;;;12.67;38.66
22572;BME280;11452;53.368;14.658;2023-04-06T14:01:06;101553.73;;;13.14;38.32
22572;BME280;11452;53.368;14.658;2023-04-06T14:06:15;101555.41;;;12.82;36.54
22572;BME280;11452;53.368;14.658;2023-04-06T14:11:22;101551.67;;;13.02;38.24
22572;BME280;11452;53.368;14.658;2023-04-06T14:16:27;101549.70;;;13.95;38.28
22572;BME280;11452;53.368;14.658;2023-04-06T14:21:33;101558.05;;;14.44;38.04
22572;BME280;11452;53.368;14.658;2023-04-06T14:26:39;101549.98;;;14.44;37.67
22572;BME280;11452;53.368;14.658;2023-04-06T14:31:48;101553.75;;;14.56;37.22
22572;BME280;11452;53.368;14.658;2023-04-06T14:36:54;101546.16;;;14.10;36.25
22572;BME280;11452;53.368;14.658;2023-04-06T14:42:00;101545.98;;;13.81;36.00
22572;BME280;11452;53.368;14.658;2023-04-06T14:47:05;101548.92;;;13.61;36.16
22572;BME280;11452;53.368;14.658;2023-04-06T14:52:11;101547.89;;;13.79;36.26
22572;BME280;11452;53.368;14.658;2023-04-06T14:57:17;101542.83;;;13.66;35.63
22572;BME280;11452;53.368;14.658;2023-04-06T15:02:22;101542.20;;;13.45;35.62
22572;BME280;11452;53.368;14.658;2023-04-06T15:07:28;101547.41;;;13.24;35.57
22572;BME280;11452;53.368;14.658;2023-04-06T15:12:36;101548.83;;;13.14;35.46
22572;BME280;11452;53.368;14.658;2023-04-06T15:17:41;101539.08;;;12.96;35.48
22572;BME280;11452;53.368;14.658;2023-04-06T15:22:47;101540.73;;;12.98;35.66
22572;BME280;11452;53.368;14.658;2023-04-06T15:27:54;101540.62;;;13.00;35.55
22572;BME280;11452;53.368;14.658;2023-04-06T15:33:01;101539.44;;;13.05;35.73
22572;BME280;11452;53.368;14.658;2023-04-06T15:38:09;101535.34;;;13.07;35.85
22572;BME280;11452;53.368;14.658;2023-04-06T15:43:15;101532.02;;;13.43;36.90
22572;BME280;11452;53.368;14.658;2023-04-06T15:48:21;101536.81;;;13.70;35.99
22572;BME280;11452;53.368;14.658;2023-04-06T15:53:28;101533.19;;;13.94;36.31
22572;BME280;11452;53.368;14.658;2023-04-06T15:58:33;101526.00;;;14.17;35.48
22572;BME280;11452;53.368;14.658;2023-04-06T16:03:39;101522.05;;;14.68;36.08
22572;BME280;11452;53.368;14.658;2023-04-06T16:08:45;101521.04;;;14.92;35.20
22572;BME280;11452;53.368;14.658;2023-04-06T16:13:51;101519.98;;;15.09;35.46
22572;BME280;11452;53.368;14.658;2023-04-06T16:18:59;101526.53;;;15.12;35.20
22572;BME280;11452;53.368;14.658;2023-04-06T16:24:05;101519.13;;;15.15;35.11
22572;BME280;11452;53.368;14.658;2023-04-06T16:29:11;101517.98;;;14.98;34.66
22572;BME280;11452;53.368;14.658;2023-04-06T16:34:17;101524.10;;;15.43;35.69
22572;BME280;11452;53.368;14.658;2023-04-06T16:39:23;101515.56;;;15.29;33.41
22572;BME280;11452;53.368;14.658;2023-04-06T16:44:29;101527.92;;;14.61;32.96
22572;BME280;11452;53.368;14.658;2023-04-06T16:49:35;101523.44;;;14.00;32.76
22572;BME280;11452;53.368;14.658;2023-04-06T16:54:40;101528.13;;;13.80;32.96
22572;BME280;11452;53.368;14.658;2023-04-06T16:59:46;101523.48;;;13.44;32.89
22572;BME280;11452;53.368;14.658;2023-04-06T17:04:51;101527.31;;;13.15;33.01
22572;BME280;11452;53.368;14.658;2023-04-06T17:09:59;101526.38;;;12.91;33.07
22572;BME280;11452;53.368;14.658;2023-04-06T17:15:06;101533.44;;;12.59;33.14
22572;BME280;11452;53.368;14.658;2023-04-06T17:20:12;101538.81;;;12.41;33.32
22572;BME280;11452;53.368;14.658;2023-04-06T17:25:17;101537.60;;;12.21;33.44
22572;BME280;11452;53.368;14.658;2023-04-06T17:30:23;101541.81;;;11.99;33.64
22572;BME280;11452;53.368;14.658;2023-04-06T17:35:29;101546.59;;;11.84;33.82
22572;BME280;11452;53.368;14.658;2023-04-06T17:40:34;101543.02;;;11.65;34.00
22572;BME280;11452;53.368;14.658;2023-04-06T17:45:41;101547.20;;;11.52;34.19
22572;BME280;11452;53.368;14.658;2023-04-06T17:50:46;101551.05;;;11.27;34.34
22572;BME280;11452;53.368;14.658;2023-04-06T17:55:52;101558.97;;;11.00;34.55
22572;BME280;11452;53.368;14.658;2023-04-06T18:00:58;101559.20;;;10.75;34.87
22572;BME280;11452;53.368;14.658;2023-04-06T18:06:14;101565.79;;;10.46;35.29
22572;BME280;11452;53.368;14.658;2023-04-06T18:11:20;101559.26;;;10.21;35.60
22572;BME280;11452;53.368;14.658;2023-04-06T18:16:26;101561.19;;;9.84;36.00
22572;BME280;11452;53.368;14.658;2023-04-06T18:21:32;101559.57;;;9.58;36.47
22572;BME280;11452;53.368;14.658;2023-04-06T18:26:38;101570.55;;;9.39;36.96
22572;BME280;11452;53.368;14.658;2023-04-06T18:31:43;101570.98;;;9.15;37.45
22572;BME280;11452;53.368;14.658;2023-04-06T18:36:51;101576.23;;;8.93;37.80
22572;BME280;11452;53.368;14.658;2023-04-06T18:41:56;101580.70;;;8.68;38.42
22572;BME280;11452;53.368;14.658;2023-04-06T18:47:02;101578.77;;;8.47;38.60
22572;BME280;11452;53.368;14.658;2023-04-06T18:52:09;101571.83;;;8.15;39.35
22572;BME280;11452;53.368;14.658;2023-04-06T18:57:15;101578.17;;;7.97;39.81
22572;BME280;11452;53.368;14.658;2023-04-06T19:02:20;101576.42;;;7.82;40.27
22572;BME280;11452;53.368;14.658;2023-04-06T19:07:26;101572.41;;;7.69;40.95
22572;BME280;11452;53.368;14.658;2023-04-06T19:12:35;101569.77;;;7.54;41.35
22572;BME280;11452;53.368;14.658;2023-04-06T19:17:43;101586.69;;;7.37;42.10
22572;BME280;11452;53.368;14.658;2023-04-06T19:22:49;101591.88;;;7.41;42.60
22572;BME280;11452;53.368;14.658;2023-04-06T19:27:54;101596.91;;;7.50;42.71
22572;BME280;11452;53.368;14.658;2023-04-06T19:33:00;101596.20;;;7.44;42.97
22572;BME280;11452;53.368;14.658;2023-04-06T19:38:08;101590.39;;;7.46;43.19
22572;BME280;11452;53.368;14.658;2023-04-06T19:43:14;101598.07;;;7.42;43.43
22572;BME280;11452;53.368;14.658;2023-04-06T19:48:23;101603.23;;;7.32;43.59
22572;BME280;11452;53.368;14.658;2023-04-06T19:53:30;101601.01;;;7.16;43.76
22572;BME280;11452;53.368;14.658;2023-04-06T19:58:44;101600.58;;;7.01;44.11
22572;BME280;11452;53.368;14.658;2023-04-06T20:03:49;101603.73;;;6.99;44.60
22572;BME280;11452;53.368;14.658;2023-04-06T20:08:56;101604.75;;;6.93;44.71
22572;BME280;11452;53.368;14.658;2023-04-06T20:14:02;101607.72;;;6.82;45.03
22572;BME280;11452;53.368;14.658;2023-04-06T20:19:08;101602.36;;;6.68;45.10
22572;BME280;11452;53.368;14.658;2023-04-06T20:24:14;101603.91;;;6.58;45.47
22572;BME280;11452;53.368;14.658;2023-04-06T20:29:20;101598.12;;;6.43;45.93
22572;BME280;11452;53.368;14.658;2023-04-06T20:34:25;101601.30;;;6.39;46.33
22572;BME280;11452;53.368;14.658;2023-04-06T20:39:32;101608.99;;;6.32;46.60
22572;BME280;11452;53.368;14.658;2023-04-06T20:44:37;101609.52;;;6.30;46.74
22572;BME280;11452;53.368;14.658;2023-04-06T20:49:43;101609.30;;;6.20;47.03
22572;BME280;11452;53.368;14.658;2023-04-06T20:54:49;101604.84;;;6.22;47.19
22572;BME280;11452;53.368;14.658;2023-04-06T20:59:55;101603.61;;;6.17;47.58
22572;BME280;11452;53.368;14.658;2023-04-06T21:05:00;101598.38;;;6.14;47.68
22572;BME280;11452;53.368;14.658;2023-04-06T21:10:07;101603.78;;;6.11;48.00
22572;BME280;11452;53.368;14.658;2023-04-06T21:15:12;101599.98;;;6.21;48.19
22572;BME280;11452;53.368;14.658;2023-04-06T21:20:18;101599.52;;;6.22;48.24
22572;BME280;11452;53.368;14.658;2023-04-06T21:25:23;101605.08;;;6.31;48.34
22572;BME280;11452;53.368;14.658;2023-04-06T21:30:29;101598.72;;;6.36;48.44
22572;BME280;11452;53.368;14.658;2023-04-06T21:35:41;101592.95;;;6.37;48.32
22572;BME280;11452;53.368;14.658;2023-04-06T21:40:54;101590.72;;;6.38;48.57
22572;BME280;11452;53.368;14.658;2023-04-06T21:45:59;101599.11;;;6.39;48.53
22572;BME280;11452;53.368;14.658;2023-04-06T21:51:05;101595.92;;;6.42;48.60
22572;BME280;11452;53.368;14.658;2023-04-06T21:56:11;101591.48;;;6.43;48.50
22572;BME280;11452;53.368;14.658;2023-04-06T22:01:17;101586.66;;;6.41;48.70
22572;BME280;11452;53.368;14.658;2023-04-06T22:06:22;101584.05;;;6.39;48.52
22572;BME280;11452;53.368;14.658;2023-04-06T22:11:29;101591.95;;;6.24;48.57
22572;BME280;11452;53.368;14.658;2023-04-06T22:16:34;101583.80;;;6.13;48.95
22572;BME280;11452;53.368;14.658;2023-04-06T22:21:40;101584.75;;;6.12;48.95
22572;BME280;11452;53.368;14.658;2023-04-06T22:26:46;101581.98;;;5.97;49.00
22572;BME280;11452;53.368;14.658;2023-04-06T22:31:51;101574.39;;;5.80;49.15
22572;BME280;11452;53.368;14.658;2023-04-06T22:36:57;101576.27;;;5.75;49.45
22572;BME280;11452;53.368;14.658;2023-04-06T22:42:02;101569.92;;;5.63;49.55
22572;BME280;11452;53.368;14.658;2023-04-06T22:47:09;101585.66;;;5.51;49.77
22572;BME280;11452;53.368;14.658;2023-04-06T22:52:15;101571.00;;;5.35;50.10
22572;BME280;11452;53.368;14.658;2023-04-06T22:57:20;101576.33;;;5.34;50.51
22572;BME280;11452;53.368;14.658;2023-04-06T23:02:26;101576.02;;;5.27;50.61
22572;BME280;11452;53.368;14.658;2023-04-06T23:07:32;101573.02;;;5.22;50.95
22572;BME280;11452;53.368;14.658;2023-04-06T23:12:38;101571.69;;;5.22;51.10
22572;BME280;11452;53.368;14.658;2023-04-06T23:17:44;101567.52;;;5.11;51.23
22572;BME280;11452;53.368;14.658;2023-04-06T23:22:50;101566.65;;;5.10;51.59
22572;BME280;11452;53.368;14.658;2023-04-06T23:27:55;101558.42;;;5.02;51.55
22572;BME280;11452;53.368;14.658;2023-04-06T23:33:01;101564.71;;;4.98;51.97
22572;BME280;11452;53.368;14.658;2023-04-06T23:38:07;101552.81;;;4.96;52.07
22572;BME280;11452;53.368;14.658;2023-04-06T23:43:13;101549.32;;;4.94;52.22
22572;BME280;11452;53.368;14.658;2023-04-06T23:48:18;101552.45;;;4.92;52.56
22572;BME280;11452;53.368;14.658;2023-04-06T23:53:24;101550.23;;;4.93;52.69
22572;BME280;11452;53.368;14.658;2023-04-06T23:58:30;101549.46;;;4.86;52.84
